sensor_id;sensor_type;location;lat;lon;timestamp;temperature;humidity
38866;DHT22;62686;48.984;8.394;2024-03-17T00:01:57;5.20;99.90
38866;DHT22;62686;48.984;8.394;2024-03-17T00:04:25;5.20;99.90
38866;DHT22;62686;48.984;8.394;2024-03-17T00:06:53;5.10;99.90
38866;DHT22;62686;48.984;8.394;2024-03-17T00:09:20;5.10;99.90
38866;DHT22;62686;48.984;8.394;2024-03-17T00:11:46;5.00;99.90
38866;DHT22;62686;48.984;8.394;2024-03-17T00:14:14;5.00;99.90
38866;DHT22;62686;48.984;8.394;2024-03-17T00:16:42;5.00;99.90
38866;DHT22;62686;48.984;8.394;2024-03-17T00:19:09;5.00;99.90
38866;DHT22;62686;48.984;8.394;2024-03-17T00:21:36;4.90;99.90
38866;DHT22;62686;48.984;8.394;2024-03-17T00:24:04;4.90;99.90
38866;DHT22;62686;48.984;8.394;2024-03-17T00:26:30;4.90;99.90
38866;DHT22;62686;48.984;8.394;2024-03-17T00:28:57;4.90;99.90
38866;DHT22;62686;48.984;8.394;2024-03-17T00:31:24;4.90;99.90
38866;DHT22;62686;48.984;8.394;2024-03-17T00:33:53;4.80;99.90
38866;DHT22;62686;48.984;8.394;2024-03-17T00:36:19;4.80;99.90
38866;DHT22;62686;48.984;8.394;2024-03-17T00:38:51;4.80;99.90
38866;DHT22;62686;48.984;8.394;2024-03-17T00:41:18;4.70;99.90
38866;DHT22;62686;48.984;8.394;2024-03-17T00:43:47;4.70;99.90
38866;DHT22;62686;48.984;8.394;2024-03-17T00:46:13;4.70;99.90
38866;DHT22;62686;48.984;8.394;2024-03-17T00:48:41;4.70;99.90
38866;DHT22;62686;48.984;8.394;2024-03-17T00:51:08;4.70;99.90
38866;DHT22;62686;48.984;8.394;2024-03-17T00:53:37;4.70;99.90
38866;DHT22;62686;48.984;8.394;2024-03-17T00:56:04;4.70;99.90
38866;DHT22;62686;48.984;8.394;2024-03-17T00:58:32;4.80;99.90
38866;DHT22;62686;48.984;8.394;2024-03-17T01:00:59;4.80;99.90
38866;DHT22;62686;48.984;8.394;2024-03-17T01:03:26;4.80;99.90
38866;DHT22;62686;48.984;8.394;2024-03-17T01:05:53;4.90;99.90
38866;DHT22;62686;48.984;8.394;2024-03-17T01:08:23;5.00;99.90
38866;DHT22;62686;48.984;8.394;2024-03-17T01:10:49;5.00;99.90
38866;DHT22;62686;48.984;8.394;2024-03-17T01:13:17;5.00;99.90
38866;DHT22;62686;48.984;8.394;2024-03-17T01:15:44;5.00;99.90
38866;DHT22;62686;48.984;8.394;2024-03-17T01:18:11;5.00;99.90
38866;DHT22;62686;48.984;8.394;2024-03-17T01:20:38;5.00;99.90
38866;DHT22;62686;48.984;8.394;2024-03-17T01:23:06;5.00;99.90
38866;DHT22;62686;48.984;8.394;2024-03-17T01:25:34;5.00;99.90
38866;DHT22;62686;48.984;8.394;2024-03-17T01:28:03;5.00;99.90
38866;DHT22;62686;48.984;8.394;2024-03-17T01:30:30;4.90;99.90
38866;DHT22;62686;48.984;8.394;2024-03-17T01:32:58;4.90;99.90
38866;DHT22;62686;48.984;8.394;2024-03-17T01:35:25;4.90;99.90
38866;DHT22;62686;48.984;8.394;2024-03-17T01:37:53;4.80;99.90
38866;DHT22;62686;48.984;8.394;2024-03-17T01:40:20;4.80;99.90
38866;DHT22;62686;48.984;8.394;2024-03-17T01:42:49;4.80;99.90
38866;DHT22;62686;48.984;8.394;2024-03-17T01:45:26;4.80;99.90
38866;DHT22;62686;48.984;8.394;2024-03-17T01:47:56;4.80;99.90
38866;DHT22;62686;48.984;8.394;2024-03-17T01:50:24;4.80;99.90
38866;DHT22;62686;48.984;8.394;2024-03-17T01:52:54;4.80;99.90
38866;DHT22;62686;48.984;8.394;2024-03-17T01:55:25;4.90;99.90
38866;DHT22;62686;48.984;8.394;2024-03-17T01:57:55;4.90;99.90
38866;DHT22;62686;48.984;8.394;2024-03-17T02:00:25;5.00;99.90
38866;DHT22;62686;48.984;8.394;2024-03-17T04:21:54;4.30;99.90
38866;DHT22;62686;48.984;8.394;2024-03-17T04:24:22;4.30;99.90
38866;DHT22;62686;48.984;8.394;2024-03-17T04:26:50;4.20;99.90
38866;DHT22;62686;48.984;8.394;2024-03-17T04:29:17;4.30;99.90
38866;DHT22;62686;48.984;8.394;2024-03-17T04:31:46;4.30;99.90
38866;DHT22;62686;48.984;8.394;2024-03-17T04:34:14;4.40;99.90
38866;DHT22;62686;48.984;8.394;2024-03-17T04:36:42;4.40;99.90
38866;DHT22;62686;48.984;8.394;2024-03-17T04:39:11;4.40;99.90
38866;DHT22;62686;48.984;8.394;2024-03-17T04:41:38;4.30;99.90
38866;DHT22;62686;48.984;8.394;2024-03-17T04:44:09;4.10;99.90
38866;DHT22;62686;48.984;8.394;2024-03-17T04:46:36;4.00;99.90
38866;DHT22;62686;48.984;8.394;2024-03-17T04:49:04;3.80;99.90
38866;DHT22;62686;48.984;8.394;2024-03-17T04:51:32;3.70;99.90
38866;DHT22;62686;48.984;8.394;2024-03-17T04:54:00;3.60;99.90
38866;DHT22;62686;48.984;8.394;2024-03-17T04:56:30;3.50;99.90
38866;DHT22;62686;48.984;8.394;2024-03-17T04:58:58;3.50;99.90
38866;DHT22;62686;48.984;8.394;2024-03-17T05:01:25;3.50;99.90
38866;DHT22;62686;48.984;8.394;2024-03-17T05:03:53;3.60;99.90
38866;DHT22;62686;48.984;8.394;2024-03-17T05:06:21;3.70;99.90
38866;DHT22;62686;48.984;8.394;2024-03-17T05:08:48;3.60;99.90
38866;DHT22;62686;48.984;8.394;2024-03-17T05:11:16;3.60;99.90
38866;DHT22;62686;48.984;8.394;2024-03-17T05:13:46;3.50;99.90
38866;DHT22;62686;48.984;8.394;2024-03-17T05:16:14;3.40;99.90
38866;DHT22;62686;48.984;8.394;2024-03-17T05:18:42;3.30;99.90
38866;DHT22;62686;48.984;8.394;2024-03-17T05:21:10;3.30;99.90
38866;DHT22;62686;48.984;8.394;2024-03-17T05:23:38;3.20;99.90
38866;DHT22;62686;48.984;8.394;2024-03-17T05:26:05;3.10;99.90
38866;DHT22;62686;48.984;8.394;2024-03-17T05:28:34;3.10;99.90
38866;DHT22;62686;48.984;8.394;2024-03-17T05:31:10;3.00;99.90
38866;DHT22;62686;48.984;8.394;2024-03-17T05:33:41;3.10;99.90
38866;DHT22;62686;48.984;8.394;2024-03-17T05:36:09;3.10;99.90
38866;DHT22;62686;48.984;8.394;2024-03-17T05:38:37;3.00;99.90
38866;DHT22;62686;48.984;8.394;2024-03-17T05:41:06;3.00;99.90
38866;DHT22;62686;48.984;8.394;2024-03-17T05:43:36;3.00;99.90
38866;DHT22;62686;48.984;8.394;2024-03-17T05:46:05;3.00;99.90
38866;DHT22;62686;48.984;8.394;2024-03-17T05:48:37;3.00;99.90
38866;DHT22;62686;48.984;8.394;2024-03-17T05:51:06;3.10;99.90
38866;DHT22;62686;48.984;8.394;2024-03-17T05:53:37;3.10;99.90
38866;DHT22;62686;48.984;8.394;2024-03-17T05:56:06;3.20;99.90
38866;DHT22;62686;48.984;8.394;2024-03-17T05:58:35;3.30;99.90
38866;DHT22;62686;48.984;8.394;2024-03-17T06:01:04;3.40;99.90
38866;DHT22;62686;48.984;8.394;2024-03-17T06:03:33;3.50;99.90
38866;DHT22;62686;48.984;8.394;2024-03-17T06:06:04;3.60;99.90
38866;DHT22;62686;48.984;8.394;2024-03-17T06:08:33;3.60;99.90
38866;DHT22;62686;48.984;8.394;2024-03-17T06:11:02;3.70;99.90
38866;DHT22;62686;48.984;8.394;2024-03-17T06:13:30;3.80;99.90
38866;DHT22;62686;48.984;8.394;2024-03-17T06:15:58;3.90;99.90
38866;DHT22;62686;48.984;8.394;2024-03-17T06:36:56;5.30;99.90
38866;DHT22;62686;48.984;8.394;2024-03-17T06:39:26;5.50;99.90
38866;DHT22;62686;48.984;8.394;2024-03-17T07:03:32;8.50;99.90
38866;DHT22;62686;48.984;8.394;2024-03-17T07:06:02;9.20;99.90
38866;DHT22;62686;48.984;8.394;2024-03-17T07:11:13;10.90;99.90
38866;DHT22;62686;48.984;8.394;2024-03-17T07:13:44;11.80;99.90
38866;DHT22;62686;48.984;8.394;2024-03-17T07:16:15;12.50;99.90
38866;DHT22;62686;48.984;8.394;2024-03-17T07:18:45;12.90;99.90
38866;DHT22;62686;48.984;8.394;2024-03-17T07:21:13;13.20;99.90
38866;DHT22;62686;48.984;8.394;2024-03-17T07:23:41;13.20;99.90
38866;DHT22;62686;48.984;8.394;2024-03-17T07:26:09;13.20;99.90
38866;DHT22;62686;48.984;8.394;2024-03-17T07:28:38;13.40;99.90
38866;DHT22;62686;48.984;8.394;2024-03-17T07:31:08;13.50;99.90
38866;DHT22;62686;48.984;8.394;2024-03-17T07:33:37;13.30;99.90
38866;DHT22;62686;48.984;8.394;2024-03-17T07:36:06;12.70;99.90
38866;DHT22;62686;48.984;8.394;2024-03-17T07:38:36;12.20;99.90
38866;DHT22;62686;48.984;8.394;2024-03-17T07:41:05;11.80;99.90
38866;DHT22;62686;48.984;8.394;2024-03-17T07:43:35;11.60;99.90
38866;DHT22;62686;48.984;8.394;2024-03-17T07:46:06;11.50;99.90
38866;DHT22;62686;48.984;8.394;2024-03-17T07:48:36;11.40;99.90
38866;DHT22;62686;48.984;8.394;2024-03-17T07:53:47;11.50;99.90
38866;DHT22;62686;48.984;8.394;2024-03-17T07:56:15;11.70;99.90
38866;DHT22;62686;48.984;8.394;2024-03-17T07:58:44;11.60;99.90
38866;DHT22;62686;48.984;8.394;2024-03-17T08:01:14;11.40;99.90
38866;DHT22;62686;48.984;8.394;2024-03-17T08:03:45;11.10;99.90
38866;DHT22;62686;48.984;8.394;2024-03-17T08:06:15;10.80;99.90
38866;DHT22;62686;48.984;8.394;2024-03-17T08:08:43;10.70;99.90
38866;DHT22;62686;48.984;8.394;2024-03-17T08:11:12;10.80;99.90
38866;DHT22;62686;48.984;8.394;2024-03-17T08:13:39;11.00;99.90
38866;DHT22;62686;48.984;8.394;2024-03-17T08:16:07;11.50;99.90
38866;DHT22;62686;48.984;8.394;2024-03-17T08:18:36;12.20;99.90
38866;DHT22;62686;48.984;8.394;2024-03-17T08:21:04;12.90;99.90
38866;DHT22;62686;48.984;8.394;2024-03-17T08:23:32;13.50;99.90
38866;DHT22;62686;48.984;8.394;2024-03-17T08:26:02;13.70;99.90
38866;DHT22;62686;48.984;8.394;2024-03-17T08:28:31;13.50;99.90
38866;DHT22;62686;48.984;8.394;2024-03-17T08:31:00;13.10;99.90
38866;DHT22;62686;48.984;8.394;2024-03-17T08:33:29;12.70;99.90
38866;DHT22;62686;48.984;8.394;2024-03-17T08:36:00;12.50;99.90
38866;DHT22;62686;48.984;8.394;2024-03-17T08:38:29;12.60;99.90
38866;DHT22;62686;48.984;8.394;2024-03-17T08:41:01;12.90;99.90
38866;DHT22;62686;48.984;8.394;2024-03-17T08:43:31;13.20;99.90
38866;DHT22;62686;48.984;8.394;2024-03-17T08:45:59;13.40;99.90
38866;DHT22;62686;48.984;8.394;2024-03-17T08:48:30;13.50;99.90
38866;DHT22;62686;48.984;8.394;2024-03-17T08:50:58;13.30;99.90
38866;DHT22;62686;48.984;8.394;2024-03-17T08:53:28;13.20;99.90
38866;DHT22;62686;48.984;8.394;2024-03-17T08:55:56;12.90;99.90
38866;DHT22;62686;48.984;8.394;2024-03-17T08:58:25;12.70;99.90
38866;DHT22;62686;48.984;8.394;2024-03-17T12:26:54;19.30;99.90
38866;DHT22;62686;48.984;8.394;2024-03-17T12:29:27;19.50;99.90
38866;DHT22;62686;48.984;8.394;2024-03-17T12:31:57;19.90;99.90
38866;DHT22;62686;48.984;8.394;2024-03-17T12:34:28;19.70;99.90
38866;DHT22;62686;48.984;8.394;2024-03-17T12:37:04;19.50;99.90
38866;DHT22;62686;48.984;8.394;2024-03-17T12:39:32;20.10;99.90
38866;DHT22;62686;48.984;8.394;2024-03-17T12:42:08;20.70;99.90
38866;DHT22;62686;48.984;8.394;2024-03-17T12:44:40;20.70;99.90
38866;DHT22;62686;48.984;8.394;2024-03-17T12:47:15;20.40;99.90
38866;DHT22;62686;48.984;8.394;2024-03-17T12:49:45;20.10;99.90
38866;DHT22;62686;48.984;8.394;2024-03-17T12:52:20;20.00;99.90
38866;DHT22;62686;48.984;8.394;2024-03-17T12:54:58;19.70;99.90
38866;DHT22;62686;48.984;8.394;2024-03-17T12:57:41;19.60;99.90
38866;DHT22;62686;48.984;8.394;2024-03-17T13:00:28;19.20;99.90
38866;DHT22;62686;48.984;8.394;2024-03-17T13:03:00;18.60;99.90
38866;DHT22;62686;48.984;8.394;2024-03-17T13:05:28;18.70;99.90
38866;DHT22;62686;48.984;8.394;2024-03-17T13:07:57;18.80;99.90
38866;DHT22;62686;48.984;8.394;2024-03-17T13:10:32;19.10;99.90
38866;DHT22;62686;48.984;8.394;2024-03-17T13:13:01;19.40;99.90
38866;DHT22;62686;48.984;8.394;2024-03-17T13:15:37;19.00;99.90
38866;DHT22;62686;48.984;8.394;2024-03-17T13:18:05;19.00;99.90
38866;DHT22;62686;48.984;8.394;2024-03-17T13:20:34;18.30;99.90
38866;DHT22;62686;48.984;8.394;2024-03-17T13:23:07;18.60;99.90
38866;DHT22;62686;48.984;8.394;2024-03-17T13:25:37;18.20;99.90
38866;DHT22;62686;48.984;8.394;2024-03-17T13:28:10;18.30;99.90
38866;DHT22;62686;48.984;8.394;2024-03-17T13:30:40;18.90;99.90
38866;DHT22;62686;48.984;8.394;2024-03-17T13:33:10;19.10;99.90
38866;DHT22;62686;48.984;8.394;2024-03-17T13:35:40;18.70;99.90
38866;DHT22;62686;48.984;8.394;2024-03-17T13:38:10;18.30;99.90
38866;DHT22;62686;48.984;8.394;2024-03-17T13:40:39;17.70;99.90
38866;DHT22;62686;48.984;8.394;2024-03-17T13:43:10;17.70;99.90
38866;DHT22;62686;48.984;8.394;2024-03-17T13:45:39;18.50;99.90
38866;DHT22;62686;48.984;8.394;2024-03-17T13:48:08;18.90;99.90
38866;DHT22;62686;48.984;8.394;2024-03-17T13:50:37;19.30;99.90
38866;DHT22;62686;48.984;8.394;2024-03-17T13:53:07;18.90;99.90
38866;DHT22;62686;48.984;8.394;2024-03-17T13:55:34;18.60;99.90
38866;DHT22;62686;48.984;8.394;2024-03-17T13:58:02;18.70;99.90
38866;DHT22;62686;48.984;8.394;2024-03-17T14:00:32;18.20;99.90
38866;DHT22;62686;48.984;8.394;2024-03-17T14:03:02;17.60;99.90
38866;DHT22;62686;48.984;8.394;2024-03-17T14:05:30;17.50;99.90
38866;DHT22;62686;48.984;8.394;2024-03-17T14:08:00;17.30;99.90
38866;DHT22;62686;48.984;8.394;2024-03-17T14:10:28;17.20;99.90
38866;DHT22;62686;48.984;8.394;2024-03-17T14:12:55;17.00;99.90
38866;DHT22;62686;48.984;8.394;2024-03-17T14:15:23;17.40;99.90
38866;DHT22;62686;48.984;8.394;2024-03-17T14:17:52;17.20;99.90
38866;DHT22;62686;48.984;8.394;2024-03-17T14:20:20;17.10;99.90
38866;DHT22;62686;48.984;8.394;2024-03-17T14:22:48;17.40;99.90
38866;DHT22;62686;48.984;8.394;2024-03-17T14:25:19;17.80;99.90
38866;DHT22;62686;48.984;8.394;2024-03-17T14:27:47;18.50;99.90
38866;DHT22;62686;48.984;8.394;2024-03-17T14:30:17;18.80;99.90
38866;DHT22;62686;48.984;8.394;2024-03-17T14:32:45;18.90;99.90
38866;DHT22;62686;48.984;8.394;2024-03-17T14:35:16;18.80;99.90
38866;DHT22;62686;48.984;8.394;2024-03-17T14:37:46;18.50;99.90
38866;DHT22;62686;48.984;8.394;2024-03-17T14:40:15;17.50;99.90
38866;DHT22;62686;48.984;8.394;2024-03-17T14:42:47;17.40;99.90
38866;DHT22;62686;48.984;8.394;2024-03-17T14:45:16;17.20;99.90
38866;DHT22;62686;48.984;8.394;2024-03-17T14:47:43;16.90;99.90
38866;DHT22;62686;48.984;8.394;2024-03-17T14:50:11;16.80;99.90
38866;DHT22;62686;48.984;8.394;2024-03-17T14:52:40;17.10;99.90
38866;DHT22;62686;48.984;8.394;2024-03-17T14:55:09;17.20;99.90
38866;DHT22;62686;48.984;8.394;2024-03-17T14:57:37;17.30;99.90
38866;DHT22;62686;48.984;8.394;2024-03-17T15:00:06;17.20;99.90
38866;DHT22;62686;48.984;8.394;2024-03-17T15:02:42;16.80;99.90
38866;DHT22;62686;48.984;8.394;2024-03-17T15:05:09;16.40;99.90
38866;DHT22;62686;48.984;8.394;2024-03-17T15:07:37;16.20;99.90
38866;DHT22;62686;48.984;8.394;2024-03-17T15:10:07;15.90;99.90
38866;DHT22;62686;48.984;8.394;2024-03-17T15:12:35;15.60;99.90
38866;DHT22;62686;48.984;8.394;2024-03-17T15:15:02;15.60;99.90
38866;DHT22;62686;48.984;8.394;2024-03-17T15:17:31;15.50;99.90
38866;DHT22;62686;48.984;8.394;2024-03-17T15:19:58;15.20;99.90
38866;DHT22;62686;48.984;8.394;2024-03-17T15:22:26;15.10;99.90
38866;DHT22;62686;48.984;8.394;2024-03-17T15:24:54;15.10;99.90
38866;DHT22;62686;48.984;8.394;2024-03-17T15:27:22;15.00;99.90
38866;DHT22;62686;48.984;8.394;2024-03-17T15:29:50;14.90;99.90
38866;DHT22;62686;48.984;8.394;2024-03-17T15:32:18;14.70;99.90
38866;DHT22;62686;48.984;8.394;2024-03-17T15:34:45;14.70;99.90
38866;DHT22;62686;48.984;8.394;2024-03-17T15:37:12;14.70;99.90
38866;DHT22;62686;48.984;8.394;2024-03-17T15:39:40;14.60;99.90
38866;DHT22;62686;48.984;8.394;2024-03-17T15:42:09;14.60;99.90
38866;DHT22;62686;48.984;8.394;2024-03-17T15:44:40;14.50;99.90
38866;DHT22;62686;48.984;8.394;2024-03-17T15:47:07;14.50;99.90
38866;DHT22;62686;48.984;8.394;2024-03-17T15:49:34;14.30;99.90
38866;DHT22;62686;48.984;8.394;2024-03-17T15:52:03;14.30;99.90
38866;DHT22;62686;48.984;8.394;2024-03-17T15:54:31;14.20;99.90
38866;DHT22;62686;48.984;8.394;2024-03-17T15:56:58;14.30;99.90
38866;DHT22;62686;48.984;8.394;2024-03-17T15:59:26;14.20;99.90
38866;DHT22;62686;48.984;8.394;2024-03-17T16:01:54;14.20;99.90
38866;DHT22;62686;48.984;8.394;2024-03-17T16:04:23;14.20;99.90
38866;DHT22;62686;48.984;8.394;2024-03-17T16:06:53;14.20;99.90
38866;DHT22;62686;48.984;8.394;2024-03-17T16:09:21;14.20;99.90
38866;DHT22;62686;48.984;8.394;2024-03-17T16:11:49;14.20;99.90
38866;DHT22;62686;48.984;8.394;2024-03-17T16:14:15;14.30;99.90
38866;DHT22;62686;48.984;8.394;2024-03-17T16:16:43;14.30;99.90
38866;DHT22;62686;48.984;8.394;2024-03-17T16:19:12;14.30;99.90
38866;DHT22;62686;48.984;8.394;2024-03-17T16:21:41;14.30;99.90
38866;DHT22;62686;48.984;8.394;2024-03-17T16:24:11;14.30;99.90
38866;DHT22;62686;48.984;8.394;2024-03-17T16:26:42;14.20;99.90
38866;DHT22;62686;48.984;8.394;2024-03-17T16:29:09;14.10;99.90
38866;DHT22;62686;48.984;8.394;2024-03-17T16:31:38;14.10;99.90
38866;DHT22;62686;48.984;8.394;2024-03-17T16:34:06;14.10;99.90
38866;DHT22;62686;48.984;8.394;2024-03-17T16:36:36;14.10;99.90
38866;DHT22;62686;48.984;8.394;2024-03-17T16:39:06;14.10;99.90
38866;DHT22;62686;48.984;8.394;2024-03-17T16:41:36;14.00;99.90
38866;DHT22;62686;48.984;8.394;2024-03-17T16:44:05;13.90;99.90
38866;DHT22;62686;48.984;8.394;2024-03-17T16:49:57;13.80;99.90
38866;DHT22;62686;48.984;8.394;2024-03-17T16:52:30;13.60;99.90
38866;DHT22;62686;48.984;8.394;2024-03-17T16:54:58;13.50;99.90
38866;DHT22;62686;48.984;8.394;2024-03-17T16:57:26;13.30;99.90
38866;DHT22;62686;48.984;8.394;2024-03-17T16:59:53;13.20;99.90
38866;DHT22;62686;48.984;8.394;2024-03-17T17:02:21;13.00;99.90
38866;DHT22;62686;48.984;8.394;2024-03-17T17:04:48;12.80;99.90
38866;DHT22;62686;48.984;8.394;2024-03-17T17:07:16;12.60;99.90
38866;DHT22;62686;48.984;8.394;2024-03-17T17:09:45;12.40;99.90
38866;DHT22;62686;48.984;8.394;2024-03-17T17:12:13;12.30;99.90
38866;DHT22;62686;48.984;8.394;2024-03-17T17:14:41;12.20;99.90
38866;DHT22;62686;48.984;8.394;2024-03-17T17:17:09;12.10;99.90
38866;DHT22;62686;48.984;8.394;2024-03-17T17:19:38;12.00;99.90
38866;DHT22;62686;48.984;8.394;2024-03-17T17:22:06;11.90;99.90
38866;DHT22;62686;48.984;8.394;2024-03-17T17:24:33;11.80;99.90
38866;DHT22;62686;48.984;8.394;2024-03-17T17:27:06;11.70;99.90
38866;DHT22;62686;48.984;8.394;2024-03-17T17:29:36;11.60;99.90
38866;DHT22;62686;48.984;8.394;2024-03-17T17:32:04;11.40;99.90
38866;DHT22;62686;48.984;8.394;2024-03-17T17:34:34;11.20;99.90
38866;DHT22;62686;48.984;8.394;2024-03-17T17:37:02;11.10;99.90
38866;DHT22;62686;48.984;8.394;2024-03-17T17:39:30;10.90;99.90
38866;DHT22;62686;48.984;8.394;2024-03-17T17:41:59;10.80;99.90
38866;DHT22;62686;48.984;8.394;2024-03-17T17:44:32;10.60;99.90
38866;DHT22;62686;48.984;8.394;2024-03-17T17:47:00;10.50;99.90
38866;DHT22;62686;48.984;8.394;2024-03-17T17:49:29;10.40;99.90
38866;DHT22;62686;48.984;8.394;2024-03-17T17:51:56;10.30;99.90
38866;DHT22;62686;48.984;8.394;2024-03-17T17:54:25;10.20;99.90
38866;DHT22;62686;48.984;8.394;2024-03-17T17:56:53;10.10;99.90
38866;DHT22;62686;48.984;8.394;2024-03-17T17:59:20;10.00;99.90
38866;DHT22;62686;48.984;8.394;2024-03-17T18:01:49;9.90;99.90
38866;DHT22;62686;48.984;8.394;2024-03-17T18:04:17;9.90;99.90
38866;DHT22;62686;48.984;8.394;2024-03-17T18:06:45;9.80;99.90
38866;DHT22;62686;48.984;8.394;2024-03-17T18:09:12;9.80;99.90
38866;DHT22;62686;48.984;8.394;2024-03-17T18:11:46;9.90;99.90
38866;DHT22;62686;48.984;8.394;2024-03-17T18:14:14;9.80;99.90
38866;DHT22;62686;48.984;8.394;2024-03-17T18:16:49;9.80;99.90
38866;DHT22;62686;48.984;8.394;2024-03-17T18:19:17;9.70;99.90
38866;DHT22;62686;48.984;8.394;2024-03-17T18:21:44;9.60;99.90
38866;DHT22;62686;48.984;8.394;2024-03-17T18:24:12;9.60;99.90
38866;DHT22;62686;48.984;8.394;2024-03-17T18:26:40;9.50;99.90
38866;DHT22;62686;48.984;8.394;2024-03-17T18:29:08;9.50;99.90
38866;DHT22;62686;48.984;8.394;2024-03-17T18:31:35;9.50;99.90
38866;DHT22;62686;48.984;8.394;2024-03-17T18:34:04;9.50;99.90
38866;DHT22;62686;48.984;8.394;2024-03-17T18:36:31;9.60;99.90
38866;DHT22;62686;48.984;8.394;2024-03-17T18:39:00;9.70;99.90
38866;DHT22;62686;48.984;8.394;2024-03-17T18:41:28;9.70;99.90
38866;DHT22;62686;48.984;8.394;2024-03-17T18:43:56;9.70;99.90
38866;DHT22;62686;48.984;8.394;2024-03-17T18:46:23;9.60;99.90
38866;DHT22;62686;48.984;8.394;2024-03-17T18:48:51;9.60;99.90
38866;DHT22;62686;48.984;8.394;2024-03-17T18:51:20;9.50;99.90
38866;DHT22;62686;48.984;8.394;2024-03-17T18:53:48;9.50;99.90
38866;DHT22;62686;48.984;8.394;2024-03-17T18:56:20;9.50;99.90
38866;DHT22;62686;48.984;8.394;2024-03-17T18:58:47;9.50;99.90
38866;DHT22;62686;48.984;8.394;2024-03-17T19:01:15;9.50;99.90
38866;DHT22;62686;48.984;8.394;2024-03-17T19:03:42;9.40;99.90
38866;DHT22;62686;48.984;8.394;2024-03-17T19:06:11;9.40;99.90
38866;DHT22;62686;48.984;8.394;2024-03-17T19:08:41;9.40;99.90
38866;DHT22;62686;48.984;8.394;2024-03-17T19:11:10;9.40;99.90
38866;DHT22;62686;48.984;8.394;2024-03-17T19:13:39;9.50;99.90
38866;DHT22;62686;48.984;8.394;2024-03-17T19:16:08;9.50;99.90
38866;DHT22;62686;48.984;8.394;2024-03-17T19:18:41;9.50;99.90
38866;DHT22;62686;48.984;8.394;2024-03-17T19:21:09;9.50;99.90
38866;DHT22;62686;48.984;8.394;2024-03-17T19:23:38;9.60;99.90
38866;DHT22;62686;48.984;8.394;2024-03-17T19:26:09;9.60;99.90
38866;DHT22;62686;48.984;8.394;2024-03-17T19:28:38;9.50;99.90
38866;DHT22;62686;48.984;8.394;2024-03-17T19:31:06;9.60;99.90
38866;DHT22;62686;48.984;8.394;2024-03-17T19:33:35;9.50;99.90
38866;DHT22;62686;48.984;8.394;2024-03-17T19:36:04;9.50;99.90
38866;DHT22;62686;48.984;8.394;2024-03-17T19:38:36;9.50;99.90
38866;DHT22;62686;48.984;8.394;2024-03-17T19:41:06;9.60;99.90
38866;DHT22;62686;48.984;8.394;2024-03-17T19:43:35;9.60;99.90
38866;DHT22;62686;48.984;8.394;2024-03-17T19:46:07;9.60;99.90
38866;DHT22;62686;48.984;8.394;2024-03-17T19:48:36;9.60;99.90
38866;DHT22;62686;48.984;8.394;2024-03-17T19:51:06;9.60;99.90
38866;DHT22;62686;48.984;8.394;2024-03-17T19:53:35;9.60;99.90
38866;DHT22;62686;48.984;8.394;2024-03-17T19:56:06;9.70;99.90
38866;DHT22;62686;48.984;8.394;2024-03-17T19:58:34;9.70;99.90
38866;DHT22;62686;48.984;8.394;2024-03-17T20:01:01;9.70;99.90
38866;DHT22;62686;48.984;8.394;2024-03-17T20:03:29;9.70;99.90
38866;DHT22;62686;48.984;8.394;2024-03-17T20:05:57;9.70;99.90
38866;DHT22;62686;48.984;8.394;2024-03-17T20:08:25;9.70;99.90
38866;DHT22;62686;48.984;8.394;2024-03-17T20:10:53;9.70;99.90
38866;DHT22;62686;48.984;8.394;2024-03-17T20:13:22;9.60;99.90
38866;DHT22;62686;48.984;8.394;2024-03-17T20:15:49;9.70;99.90
38866;DHT22;62686;48.984;8.394;2024-03-17T20:18:17;9.60;99.90
38866;DHT22;62686;48.984;8.394;2024-03-17T20:20:45;9.60;99.90
38866;DHT22;62686;48.984;8.394;2024-03-17T20:23:12;9.70;99.90
38866;DHT22;62686;48.984;8.394;2024-03-17T20:25:41;9.60;99.90
38866;DHT22;62686;48.984;8.394;2024-03-17T20:28:08;9.60;99.90
38866;DHT22;62686;48.984;8.394;2024-03-17T20:30:39;9.60;99.90
38866;DHT22;62686;48.984;8.394;2024-03-17T20:33:08;9.50;99.90
38866;DHT22;62686;48.984;8.394;2024-03-17T20:35:43;9.50;99.90
38866;DHT22;62686;48.984;8.394;2024-03-17T20:43:55;9.40;99.90
38866;DHT22;62686;48.984;8.394;2024-03-17T20:46:24;9.40;99.90
38866;DHT22;62686;48.984;8.394;2024-03-17T20:51:37;9.40;99.90
38866;DHT22;62686;48.984;8.394;2024-03-17T20:54:05;9.40;99.90
38866;DHT22;62686;48.984;8.394;2024-03-17T20:56:32;9.40;99.90
38866;DHT22;62686;48.984;8.394;2024-03-17T20:59:00;9.40;99.90
38866;DHT22;62686;48.984;8.394;2024-03-17T21:20:19;9.40;99.90
38866;DHT22;62686;48.984;8.394;2024-03-17T21:22:49;9.40;99.90
38866;DHT22;62686;48.984;8.394;2024-03-17T21:25:17;9.50;99.90
38866;DHT22;62686;48.984;8.394;2024-03-17T21:27:45;9.50;99.90
38866;DHT22;62686;48.984;8.394;2024-03-17T21:30:16;9.50;99.90
38866;DHT22;62686;48.984;8.394;2024-03-17T21:32:44;9.50;99.90
38866;DHT22;62686;48.984;8.394;2024-03-17T21:35:12;9.40;99.90
38866;DHT22;62686;48.984;8.394;2024-03-17T21:37:42;9.40;99.90
38866;DHT22;62686;48.984;8.394;2024-03-17T21:40:10;9.40;99.90
38866;DHT22;62686;48.984;8.394;2024-03-17T21:42:39;9.50;99.90
38866;DHT22;62686;48.984;8.394;2024-03-17T21:45:09;9.40;99.90
38866;DHT22;62686;48.984;8.394;2024-03-17T21:47:38;9.40;99.90
38866;DHT22;62686;48.984;8.394;2024-03-17T21:50:09;9.40;99.90
38866;DHT22;62686;48.984;8.394;2024-03-17T21:52:38;9.40;99.90
38866;DHT22;62686;48.984;8.394;2024-03-17T21:55:08;9.40;99.90
38866;DHT22;62686;48.984;8.394;2024-03-17T21:57:36;9.40;99.90
38866;DHT22;62686;48.984;8.394;2024-03-17T22:00:06;9.40;99.90
38866;DHT22;62686;48.984;8.394;2024-03-17T22:02:36;9.40;99.90
38866;DHT22;62686;48.984;8.394;2024-03-17T22:05:05;9.40;99.90
38866;DHT22;62686;48.984;8.394;2024-03-17T22:07:33;9.40;99.90
38866;DHT22;62686;48.984;8.394;2024-03-17T22:10:01;9.40;99.90
38866;DHT22;62686;48.984;8.394;2024-03-17T22:12:33;9.40;99.90
38866;DHT22;62686;48.984;8.394;2024-03-17T22:15:01;9.40;99.90
38866;DHT22;62686;48.984;8.394;2024-03-17T22:17:29;9.40;99.90
38866;DHT22;62686;48.984;8.394;2024-03-17T22:19:58;9.40;99.90
38866;DHT22;62686;48.984;8.394;2024-03-17T22:22:26;9.40;99.90
38866;DHT22;62686;48.984;8.394;2024-03-17T22:24:54;9.40;99.90
38866;DHT22;62686;48.984;8.394;2024-03-17T22:27:22;9.40;99.90
38866;DHT22;62686;48.984;8.394;2024-03-17T22:29:51;9.50;99.90
38866;DHT22;62686;48.984;8.394;2024-03-17T22:32:18;9.50;99.90
38866;DHT22;62686;48.984;8.394;2024-03-17T22:34:46;9.50;99.90
38866;DHT22;62686;48.984;8.394;2024-03-17T22:37:13;9.40;99.90
38866;DHT22;62686;48.984;8.394;2024-03-17T22:39:41;9.50;99.90
38866;DHT22;62686;48.984;8.394;2024-03-17T22:42:10;9.40;99.90
38866;DHT22;62686;48.984;8.394;2024-03-17T22:44:38;9.40;99.90
38866;DHT22;62686;48.984;8.394;2024-03-17T22:47:07;9.40;99.90
38866;DHT22;62686;48.984;8.394;2024-03-17T22:49:34;9.40;99.90
38866;DHT22;62686;48.984;8.394;2024-03-17T22:52:02;9.50;99.90